^^
Saratoga-Weather Station Historical Data
Daily Summary for May 3, 2021 Units:  English    Metric   Both
Daily Weekly Monthly Yearly Custom
  High: Low: Average:
Temperature: 81.7 °F 54.7 °F 66.6 °F
Dew Point: 59.5 °F 52.3 °F 55.8 °F
Humidity: 93% 40% 71%
Wind Speed: 6.9mph 0mph 0.7mph
Wind Gust: 8mph - -
Wind- - SE
Pressure: 30.1 in 30 in -
Precipitation: 0 in    
Historical Graphs
 
 
Tabular Data for May 3, 2021
Time Temperature Dew Point Pressure Wind Wind Speed Wind Gust Humidity Rainfall Rate (Hourly) solar
00:00 60.3 °F 55 °F 30.1 in SSE 0.9 mph 2 mph 83% 0 in 0 W/m2
00:05 60.1 °F 54.9 °F 30.1 in Calm     83% 0 in 0 W/m2
00:10 59.7 °F 54.9 °F 30.1 in Calm   2 mph 84% 0 in 0 W/m2
00:15 59.4 °F 54.5 °F 30.1 in Calm   1 mph 84% 0 in 0 W/m2
00:20 59.2 °F 54.7 °F 30.1 in SSE 0.9 mph 1 mph 85% 0 in 0 W/m2
00:25 58.8 °F 54.3 °F 30.1 in Calm     85% 0 in 0 W/m2
00:30 58.6 °F 54.5 °F 30.1 in Calm     86% 0 in 0 W/m2
00:35 58.6 °F 54.5 °F 30.1 in Calm     86% 0 in 0 W/m2
00:40 58.5 °F 54.3 °F 30.1 in Calm     86% 0 in 0 W/m2
00:45 58.3 °F 54.5 °F 30.1 in Calm   2 mph 87% 0 in 0 W/m2
00:50 58.1 °F 54.3 °F 30.1 in Calm     87% 0 in 0 W/m2
00:55 57.9 °F 54.1 °F 30.1 in SSE 2 mph 2 mph 87% 0 in 0 W/m2
01:01 57.9 °F 54.3 °F 30.1 in Calm     88% 0 in 0 W/m2
01:06 57.9 °F 54.3 °F 30.1 in Calm     88% 0 in 0 W/m2
01:11 57.9 °F 54.3 °F 30.1 in Calm   2 mph 88% 0 in 0 W/m2
01:16 57.7 °F 54.1 °F 30.1 in Calm     88% 0 in 0 W/m2
01:21 57.7 °F 54.1 °F 30.1 in Calm     88% 0 in 0 W/m2
01:26 57.7 °F 54.1 °F 30.1 in Calm     88% 0 in 0 W/m2
01:31 57.7 °F 54.1 °F 30.1 in Calm     88% 0 in 0 W/m2
01:36 57.7 °F 54.1 °F 30.1 in Calm     88% 0 in 0 W/m2
01:41 57.7 °F 54.1 °F 30.1 in Calm     88% 0 in 0 W/m2
01:46 57.6 °F 54.3 °F 30.1 in Calm     89% 0 in 0 W/m2
01:51 57.6 °F 54.3 °F 30.1 in Calm     89% 0 in 0 W/m2
01:56 57.7 °F 54.5 °F 30.1 in Calm     89% 0 in 0 W/m2
02:01 57.7 °F 54.5 °F 30.1 in Calm     89% 0 in 0 W/m2
02:06 57.6 °F 54.3 °F 30.1 in Calm     89% 0 in 0 W/m2
02:11 57.6 °F 54.3 °F 30.1 in Calm     89% 0 in 0 W/m2
02:16 57.4 °F 54.1 °F 30.1 in Calm     89% 0 in 0 W/m2
02:21 57.4 °F 54.1 °F 30.1 in Calm     89% 0 in 0 W/m2
02:26 57.2 °F 54 °F 30.1 in Calm     89% 0 in 0 W/m2
02:31 57 °F 53.8 °F 30.1 in Calm     89% 0 in 0 W/m2
02:36 57 °F 53.8 °F 30.1 in Calm     89% 0 in 0 W/m2
02:41 56.8 °F 54 °F 30.1 in Calm     90% 0 in 0 W/m2
02:46 56.8 °F 54 °F 30.1 in Calm     90% 0 in 0 W/m2
02:51 56.8 °F 54 °F 30.1 in Calm     90% 0 in 0 W/m2
02:56 56.8 °F 54 °F 30.1 in Calm     90% 0 in 0 W/m2
03:01 56.7 °F 53.8 °F 30.1 in Calm     90% 0 in 0 W/m2
03:06 56.8 °F 54.3 °F 30.1 in Calm     91% 0 in 0 W/m2
03:11 56.8 °F 54.3 °F 30.1 in Calm     91% 0 in 0 W/m2
03:16 56.8 °F 54 °F 30.1 in Calm     90% 0 in 0 W/m2
03:21 56.8 °F 54 °F 30.1 in Calm     90% 0 in 0 W/m2
03:26 56.8 °F 54 °F 30.1 in Calm     90% 0 in 0 W/m2
03:31 56.8 °F 54 °F 30.1 in Calm     90% 0 in 0 W/m2
03:36 56.8 °F 54 °F 30.1 in Calm     90% 0 in 0 W/m2
03:41 57 °F 54.1 °F 30.1 in Calm     90% 0 in 0 W/m2
03:46 57.4 °F 54.5 °F 30.1 in Calm     90% 0 in 0 W/m2
03:51 57.6 °F 54.3 °F 30.1 in Calm     89% 0 in 0 W/m2
03:56 57.4 °F 54.1 °F 30.1 in Calm     89% 0 in 0 W/m2
04:01 57.4 °F 54.1 °F 30.1 in Calm     89% 0 in 0 W/m2
04:07 57 °F 53.8 °F 30.1 in Calm     89% 0 in 0 W/m2
04:12 57 °F 53.8 °F 30.1 in Calm     89% 0 in 0 W/m2
04:17 56.8 °F 53.6 °F 30.1 in Calm     89% 0 in 0 W/m2
04:22 56.7 °F 53.4 °F 30.1 in Calm     89% 0 in 0 W/m2
04:27 56.7 °F 53.4 °F 30.1 in Calm     89% 0 in 0 W/m2
04:32 56.5 °F 53.6 °F 30.1 in Calm     90% 0 in 0 W/m2
04:37 56.5 °F 53.6 °F 30.1 in Calm     90% 0 in 0 W/m2
04:42 56.5 °F 53.6 °F 30.1 in Calm     90% 0 in 0 W/m2
04:47 56.5 °F 54 °F 30.1 in Calm     91% 0 in 0 W/m2
04:52 56.5 °F 54 °F 30.1 in Calm     91% 0 in 0 W/m2
04:57 56.7 °F 54.1 °F 30.1 in Calm     91% 0 in 0 W/m2
05:02 56.5 °F 53.6 °F 30.1 in Calm     90% 0 in 0 W/m2
05:07 56.5 °F 53.6 °F 30.1 in Calm     90% 0 in 0 W/m2
05:12 56.5 °F 53.6 °F 30.1 in Calm     90% 0 in 0 W/m2
05:17 56.5 °F 53.6 °F 30.1 in Calm     90% 0 in 0 W/m2
05:22 56.3 °F 53.4 °F 30.1 in Calm     90% 0 in 0 W/m2
05:27 56.1 °F 53.2 °F 30.1 in Calm     90% 0 in 0 W/m2
05:32 56.1 °F 53.2 °F 30.1 in Calm     90% 0 in 0 W/m2
05:37 55.9 °F 53.1 °F 30.1 in Calm     90% 0 in 0 W/m2
05:42 55.9 °F 53.1 °F 30.1 in Calm     90% 0 in 0 W/m2
05:47 55.8 °F 53.2 °F 30.1 in Calm     91% 0 in 0 W/m2
05:52 55.8 °F 53.2 °F 30.1 in Calm     91% 0 in 0 W/m2
05:57 55.6 °F 53.1 °F 30.1 in Calm     91% 0 in 0 W/m2
06:02 55.6 °F 53.1 °F 30.1 in Calm     91% 0 in 0 W/m2
06:07 55.4 °F 52.9 °F 30.1 in Calm     91% 0 in 0 W/m2
06:12 55.4 °F 52.9 °F 30.1 in Calm     91% 0 in 0 W/m2
06:17 55.2 °F 52.7 °F 30.1 in Calm     91% 0 in 0 W/m2
06:22 55.2 °F 52.7 °F 30.1 in Calm     91% 0 in 0 W/m2
06:27 55 °F 52.5 °F 30.1 in Calm     91% 0 in 0 W/m2
06:32 54.9 °F 52.3 °F 30.1 in Calm     91% 0 in 0 W/m2
06:37 54.9 °F 52.3 °F 30.1 in Calm     91% 0 in 0 W/m2
06:42 54.7 °F 52.3 °F 30.1 in Calm     92% 0 in 0 W/m2
06:47 54.7 °F 52.3 °F 30.1 in Calm     92% 0 in 0 W/m2
06:52 54.7 °F 52.3 °F 30.1 in Calm     92% 0 in 0 W/m2
06:57 54.7 °F 52.3 °F 30.1 in Calm     92% 0 in 5 W/m2
07:02 54.7 °F 52.3 °F 30.1 in Calm     92% 0 in 7 W/m2
07:07 54.7 °F 52.3 °F 30.1 in Calm     92% 0 in 9 W/m2
07:12 54.7 °F 52.7 °F 30.1 in Calm     93% 0 in 11 W/m2
07:17 54.7 °F 52.7 °F 30.1 in Calm     93% 0 in 12 W/m2
07:22 54.7 °F 52.7 °F 30.1 in Calm     93% 0 in 14 W/m2
07:27 54.9 °F 52.9 °F 30.1 in Calm     93% 0 in 16 W/m2
07:32 54.9 °F 52.9 °F 30.1 in Calm     93% 0 in 19 W/m2
07:37 55 °F 53.1 °F 30.1 in Calm     93% 0 in 21 W/m2
07:42 55.2 °F 53.2 °F 30.1 in Calm     93% 0 in 21 W/m2
07:47 55.4 °F 53.1 °F 30.1 in Calm     92% 0 in 23 W/m2
07:52 55.6 °F 53.2 °F 30.1 in Calm     92% 0 in 25 W/m2
07:57 55.8 °F 53.4 °F 30.1 in Calm     92% 0 in 26 W/m2
08:02 55.8 °F 53.4 °F 30.1 in Calm     92% 0 in 28 W/m2
08:07 56.1 °F 53.6 °F 30.1 in Calm     91% 0 in 30 W/m2
08:12 56.3 °F 53.8 °F 30.1 in Calm     91% 0 in 33 W/m2
08:17 56.5 °F 53.6 °F 30.1 in Calm     90% 0 in 74 W/m2
08:22 56.8 °F 54 °F 30.1 in Calm     90% 0 in 123 W/m2
08:27 57 °F 53.8 °F 30.1 in Calm     89% 0 in 149 W/m2
08:32 57.4 °F 53.8 °F 30.1 in Calm     88% 0 in 165 W/m2
08:37 57.7 °F 54.1 °F 30.1 in Calm     88% 0 in 179 W/m2
08:42 58.1 °F 54.3 °F 30.1 in Calm     87% 0 in 195 W/m2
08:47 58.5 °F 54.7 °F 30.1 in Calm     87% 0 in 209 W/m2
08:52 58.8 °F 54.7 °F 30.1 in Calm     86% 0 in 223 W/m2
08:57 59.4 °F 54.9 °F 30.1 in Calm     85% 0 in 237 W/m2
09:02 59.7 °F 55.2 °F 30.1 in Calm     85% 0 in 250 W/m2
09:07 59.9 °F 55.4 °F 30.1 in Calm     85% 0 in 51 W/m2
09:12 60.1 °F 55.2 °F 30.1 in Calm     84% 0 in 47 W/m2
09:17 60.3 °F 55 °F 30.1 in Calm     83% 0 in 292 W/m2
09:22 60.6 °F 55.4 °F 30.1 in Calm     83% 0 in 306 W/m2
09:27 61 °F 55.4 °F 30.1 in NE 2.9 mph 3 mph 82% 0 in 323 W/m2
09:32 61.3 °F 55.4 °F 30.1 in ENE 0.9 mph 4 mph 81% 0 in 336 W/m2
09:37 61.7 °F 56.1 °F 30.1 in ESE 0.9 mph 3 mph 82% 0 in 353 W/m2
09:42 62.4 °F 55.8 °F 30.1 in East 2.9 mph 4 mph 79% 0 in 364 W/m2
09:47 62.4 °F 55.4 °F 30.1 in East 2 mph 3 mph 78% 0 in 378 W/m2
09:52 63 °F 56.3 °F 30.1 in SSE 0.9 mph 2 mph 79% 0 in 390 W/m2
09:57 63.7 °F 56.3 °F 30.1 in NE 2 mph 4 mph 77% 0 in 404 W/m2
10:02 64 °F 56.3 °F 30.1 in East 6.9 mph 7 mph 76% 0 in 417 W/m2
10:07 64 °F 55.9 °F 30.1 in NE 2 mph 3 mph 75% 0 in 431 W/m2
10:12 64.2 °F 56.1 °F 30.1 in NE 2 mph 7 mph 75% 0 in 441 W/m2
10:17 64.8 °F 56.7 °F 30.1 in NE 0.9 mph 3 mph 75% 0 in 452 W/m2
10:23 64.9 °F 56.5 °F 30.1 in South 0.9 mph 1 mph 74% 0 in 468 W/m2
10:28 65.3 °F 56.8 °F 30.1 in Calm   3 mph 74% 0 in 480 W/m2
10:33 65.8 °F 57 °F 30.1 in ENE 2 mph 4 mph 73% 0 in 492 W/m2
10:38 66 °F 56.7 °F 30.1 in ENE 2 mph 3 mph 72% 0 in 503 W/m2
10:43 66 °F 56.7 °F 30.1 in Calm   3 mph 72% 0 in 513 W/m2
10:48 66.6 °F 57.6 °F 30.1 in East 0.9 mph 3 mph 73% 0 in 524 W/m2
10:53 66.7 °F 57.4 °F 30.1 in Calm   2 mph 72% 0 in 534 W/m2
10:58 66.9 °F 57.6 °F 30.1 in NE 2 mph 4 mph 72% 0 in 545 W/m2
11:03 66.7 °F 57.4 °F 30.1 in NNE 0.9 mph 3 mph 72% 0 in 555 W/m2
11:08 66.9 °F 57.6 °F 30.1 in NW 0.9 mph 4 mph 72% 0 in 566 W/m2
11:13 67.5 °F 57.7 °F 30.1 in Calm   3 mph 71% 0 in 578 W/m2
11:18 67.8 °F 58.1 °F 30.1 in ENE 0.9 mph 1 mph 71% 0 in 587 W/m2
11:23 68.2 °F 58.1 °F 30.1 in NE 0.9 mph 3 mph 70% 0 in 594 W/m2
11:28 68.2 °F 58.1 °F 30.1 in North 5 mph 5 mph 70% 0 in 606 W/m2
11:33 68.5 °F 58.8 °F 30.1 in Calm   2 mph 71% 0 in 617 W/m2
11:38 69.1 °F 58.8 °F 30.1 in Calm   2 mph 70% 0 in 624 W/m2
11:43 69.4 °F 58.5 °F 30.1 in NNW 2 mph 2 mph 68% 0 in 631 W/m2
11:48 69.4 °F 57.9 °F 30.1 in NE 5 mph 5 mph 67% 0 in 642 W/m2
11:53 69.4 °F 57.9 °F 30.1 in NE 0.9 mph 4 mph 67% 0 in 652 W/m2
11:58 69.6 °F 58.6 °F 30.1 in NE 2.9 mph 4 mph 68% 0 in 661 W/m2
12:03 70.3 °F 58.5 °F 30.1 in ESE 2.9 mph 3 mph 66% 0 in 666 W/m2
12:08 71.2 °F 58.8 °F 30.1 in Calm   2 mph 65% 0 in 675 W/m2
12:13 72 °F 58.3 °F 30.1 in ESE 2 mph 3 mph 62% 0 in 687 W/m2
12:18 72.7 °F 58.8 °F 30.1 in SE 0.9 mph 6 mph 62% 0 in 691 W/m2
12:23 73 °F 58.3 °F 30.1 in NE 2.9 mph 4 mph 60% 0 in 698 W/m2
12:28 73.4 °F 59.5 °F 30.1 in West 0.9 mph 6 mph 62% 0 in 703 W/m2
12:33 73.8 °F 59 °F 30.1 in ENE 2.9 mph 4 mph 60% 0 in 707 W/m2
12:38 74.1 °F 58.8 °F 30.1 in NE 2 mph 5 mph 59% 0 in 712 W/m2
12:43 74.1 °F 57.9 °F 30.1 in ENE 2.9 mph 6 mph 57% 0 in 719 W/m2
12:48 73.9 °F 57.7 °F 30.1 in South 2 mph 3 mph 57% 0 in 719 W/m2
12:53 74.1 °F 58.5 °F 30.1 in ENE 2 mph 3 mph 58% 0 in 719 W/m2
12:58 74.5 °F 58.3 °F 30.1 in ENE 4.9 mph 8 mph 57% 0 in 728 W/m2
13:03 74.8 °F 59 °F 30.1 in ESE 0.9 mph 3 mph 58% 0 in 726 W/m2
13:08 75.2 °F 57.4 °F 30.1 in ENE 2.9 mph 3 mph 54% 0 in 733 W/m2
13:13 75.6 °F 58.3 °F 30.1 in ENE 2 mph 6 mph 55% 0 in 733 W/m2
13:18 75.7 °F 58.5 °F 30.1 in East 2 mph 3 mph 55% 0 in 737 W/m2
13:23 76.1 °F 58.3 °F 30.1 in Calm   5 mph 54% 0 in 740 W/m2
13:28 76.5 °F 57.6 °F 30.1 in NE 0.9 mph 4 mph 52% 0 in 742 W/m2
13:33 76.6 °F 57.7 °F 30.1 in ENE 2.9 mph 5 mph 52% 0 in 744 W/m2
13:38 76.6 °F 57.7 °F 30.1 in Calm   2 mph 52% 0 in 742 W/m2
13:43 77 °F 57 °F 30.1 in ESE 0.9 mph 5 mph 50% 0 in 745 W/m2
13:48 77.2 °F 57.7 °F 30.1 in North 0.9 mph 7 mph 51% 0 in 747 W/m2
13:53 77 °F 57 °F 30.1 in SE 2 mph 5 mph 50% 0 in 744 W/m2
13:58 77.2 °F 57 °F 30.1 in NW 0.9 mph 7 mph 50% 0 in 744 W/m2
14:03 77.5 °F 57.4 °F 30.1 in SW 2 mph 2 mph 50% 0 in 747 W/m2
14:08 77.5 °F 56.8 °F 30.1 in ENE 2 mph 5 mph 49% 0 in 744 W/m2
14:13 77.7 °F 58.1 °F 30.1 in NE 2.9 mph 4 mph 51% 0 in 742 W/m2
14:18 77.9 °F 57.2 °F 30.1 in Calm   5 mph 49% 0 in 742 W/m2
14:23 77.7 °F 56.5 °F 30.1 in North 2 mph 2 mph 48% 0 in 744 W/m2
14:28 77.7 °F 57.6 °F 30.1 in ESE 0.9 mph 4 mph 50% 0 in 742 W/m2
14:33 78.1 °F 57.4 °F 30.1 in Calm   3 mph 49% 0 in 738 W/m2
14:38 78.1 °F 56.8 °F 30.1 in SE 2 mph 3 mph 48% 0 in 733 W/m2
14:43 78.3 °F 57.6 °F 30.1 in ESE 2 mph 3 mph 49% 0 in 733 W/m2
14:48 78.4 °F 56.5 °F 30.1 in Calm   2 mph 47% 0 in 728 W/m2
14:53 78.6 °F 57.2 °F 30.1 in East 2.9 mph 7 mph 48% 0 in 724 W/m2
14:58 79 °F 58.8 °F 30.1 in Calm   4 mph 50% 0 in 719 W/m2
15:03 79.3 °F 56.8 °F 30.1 in East 0.9 mph 3 mph 46% 0 in 714 W/m2
15:08 79.3 °F 58.5 °F 30 in ESE 2 mph 3 mph 49% 0 in 708 W/m2
15:13 79.3 °F 58.5 °F 30 in Calm   1 mph 49% 0 in 703 W/m2
15:18 79.7 °F 57.7 °F 30 in ENE 0.9 mph 2 mph 47% 0 in 698 W/m2
15:23 80.1 °F 58.6 °F 30 in East 2 mph 4 mph 48% 0 in 689 W/m2
15:28 79.9 °F 59 °F 30 in East 2.9 mph 3 mph 49% 0 in 684 W/m2
15:33 79.7 °F 57 °F 30 in ESE 2.9 mph 4 mph 46% 0 in 675 W/m2
15:38 80.1 °F 59.2 °F 30 in SSW 2 mph 3 mph 49% 0 in 664 W/m2
15:43 79.9 °F 58.5 °F 30 in Calm   4 mph 48% 0 in 659 W/m2
15:48 80.1 °F 56.8 °F 30 in Calm   4 mph 45% 0 in 652 W/m2
15:53 79.9 °F 56.7 °F 30 in East 0.9 mph 1 mph 45% 0 in 640 W/m2
15:58 79.7 °F 56.5 °F 30 in WNW 2 mph 2 mph 45% 0 in 638 W/m2
16:03 79.5 °F 57.6 °F 30 in WSW 2 mph 2 mph 47% 0 in 629 W/m2
16:09 79.7 °F 59.4 °F 30 in Calm   2 mph 50% 0 in 617 W/m2
16:14 79.9 °F 57.9 °F 30 in East 0.9 mph 2 mph 47% 0 in 610 W/m2
16:19 80.1 °F 57.4 °F 30 in SE 2 mph 2 mph 46% 0 in 599 W/m2
16:24 80.4 °F 59 °F 30 in Calm   3 mph 48% 0 in 587 W/m2
16:29 81 °F 57.6 °F 30 in Calm   2 mph 45% 0 in 578 W/m2
16:34 81.1 °F 57.2 °F 30 in ESE 0.9 mph 4 mph 44% 0 in 568 W/m2
16:39 81.3 °F 57.4 °F 30 in ESE 0.9 mph 3 mph 44% 0 in 557 W/m2
16:44 81.7 °F 57.6 °F 30 in SW 0.9 mph 4 mph 44% 0 in 541 W/m2
16:49 81.7 °F 58.3 °F 30 in SSE 0.9 mph 4 mph 45% 0 in 526 W/m2
16:54 81.5 °F 56.8 °F 30 in Calm   2 mph 43% 0 in 519 W/m2
16:59 81.3 °F 57.4 °F 30 in SE 2.9 mph 6 mph 44% 0 in 508 W/m2
17:04 81.3 °F 56.1 °F 30 in North 2 mph 3 mph 42% 0 in 490 W/m2
17:09 81.5 °F 54.9 °F 30 in ENE 0.9 mph 6 mph 40% 0 in 478 W/m2
17:14 81.5 °F 55.6 °F 30 in NNW 0.9 mph 3 mph 41% 0 in 462 W/m2
17:19 81.5 °F 56.1 °F 30 in SE 2 mph 3 mph 42% 0 in 448 W/m2
17:24 81.3 °F 56.7 °F 30 in SE 0.9 mph 2 mph 43% 0 in 439 W/m2
17:29 81.1 °F 56.5 °F 30 in Calm   3 mph 43% 0 in 422 W/m2
17:34 81.3 °F 57.4 °F 30 in WSW 0.9 mph 2 mph 44% 0 in 404 W/m2
17:39 81.3 °F 57.4 °F 30 in NNW 2 mph 2 mph 44% 0 in 390 W/m2
17:44 81 °F 55.8 °F 30 in West 6 mph 6 mph 42% 0 in 380 W/m2
17:49 80.8 °F 54.9 °F 30 in Calm   4 mph 41% 0 in 360 W/m2
17:54 80.8 °F 56.1 °F 30 in Calm   2 mph 43% 0 in 348 W/m2
17:59 81 °F 55.8 °F 30 in ENE 2 mph 3 mph 42% 0 in 334 W/m2
18:04 80.8 °F 55.6 °F 30 in Calm   3 mph 42% 0 in 322 W/m2
18:09 80.8 °F 56.1 °F 30 in East 2 mph 7 mph 43% 0 in 308 W/m2
18:14 80.8 °F 55.6 °F 30 in NNW 0.9 mph 2 mph 42% 0 in 294 W/m2
18:19 80.8 °F 54.9 °F 30 in ENE 0.9 mph 6 mph 41% 0 in 274 W/m2
18:24 81 °F 55.8 °F 30 in Calm   2 mph 42% 0 in 262 W/m2
18:29 80.4 °F 54.5 °F 30 in ESE 2 mph 4 mph 41% 0 in 250 W/m2
18:34 80.2 °F 55.8 °F 30 in Calm   1 mph 43% 0 in 236 W/m2
18:39 80.1 °F 56.1 °F 30 in NE 2.9 mph 4 mph 44% 0 in 218 W/m2
18:44 79.9 °F 55.4 °F 30 in NW 0.9 mph 3 mph 43% 0 in 202 W/m2
18:49 79.9 °F 55.9 °F 30 in Calm     44% 0 in 190 W/m2
18:54 79.7 °F 56.5 °F 30 in Calm   1 mph 45% 0 in 174 W/m2
18:59 79.2 °F 55.9 °F 30 in North 0.9 mph 3 mph 45% 0 in 158 W/m2
19:04 79 °F 57.6 °F 30 in SSE 2 mph 2 mph 48% 0 in 144 W/m2
19:09 78.3 °F 57.6 °F 30 in NW 0.9 mph 2 mph 49% 0 in 130 W/m2
19:14 77.4 °F 55.6 °F 30 in ENE 0.9 mph 2 mph 47% 0 in 113 W/m2
19:19 77.2 °F 57.7 °F 30 in NE 0.9 mph 2 mph 51% 0 in 95 W/m2
19:24 76.6 °F 58.3 °F 30 in Calm   2 mph 53% 0 in 79 W/m2
19:29 75.9 °F 58.1 °F 30 in SE 0.9 mph 1 mph 54% 0 in 25 W/m2
19:34 75.2 °F 58.5 °F 30 in SE 0.9 mph 2 mph 56% 0 in 23 W/m2
19:39 74.5 °F 58.3 °F 30 in Calm   2 mph 57% 0 in 19 W/m2
19:44 73.8 °F 58.1 °F 30 in SE 0.9 mph 1 mph 58% 0 in 18 W/m2
19:49 73 °F 57.9 °F 30 in Calm   2 mph 59% 0 in 14 W/m2
19:54 72.5 °F 57.7 °F 30 in Calm     60% 0 in 12 W/m2
19:59 72 °F 57.7 °F 30 in Calm   2 mph 61% 0 in 11 W/m2
20:04 71.2 °F 57.6 °F 30 in Calm     62% 0 in 9 W/m2
20:09 70.7 °F 57.6 °F 30 in SE 2 mph 2 mph 63% 0 in 5 W/m2
20:14 70.2 °F 57.4 °F 30 in Calm     64% 0 in 5 W/m2
20:19 69.4 °F 57.2 °F 30 in Calm     65% 0 in 0 W/m2
20:24 68.7 °F 57.4 °F 30 in Calm     67% 0 in 0 W/m2
20:29 68.4 °F 57 °F 30 in Calm     67% 0 in 0 W/m2
20:34 67.8 °F 56.8 °F 30 in Calm     68% 0 in 0 W/m2
20:39 67.5 °F 57 °F 30 in Calm     69% 0 in 0 W/m2
20:44 66.9 °F 56.8 °F 30 in Calm     70% 0 in 0 W/m2
20:49 66.7 °F 57 °F 30 in Calm   1 mph 71% 0 in 0 W/m2
20:54 66.4 °F 57 °F 30 in Calm     72% 0 in 0 W/m2
20:59 66 °F 56.7 °F 30 in Calm   1 mph 72% 0 in 0 W/m2
21:04 65.7 °F 57.2 °F 30 in Calm     74% 0 in 0 W/m2
21:10 65.5 °F 57 °F 30 in Calm     74% 0 in 0 W/m2
21:15 65.1 °F 57 °F 30 in Calm     75% 0 in 0 W/m2
21:20 64.9 °F 57.2 °F 30 in Calm     76% 0 in 0 W/m2
21:25 64.6 °F 56.8 °F 30 in Calm     76% 0 in 0 W/m2
21:30 64.2 °F 56.8 °F 30 in Calm     77% 0 in 0 W/m2
21:35 64 °F 57 °F 30 in Calm     78% 0 in 0 W/m2
21:40 63.9 °F 56.8 °F 30 in Calm     78% 0 in 0 W/m2
21:45 63.5 °F 56.5 °F 30 in Calm     78% 0 in 0 W/m2
21:50 63.3 °F 56.7 °F 30 in Calm     79% 0 in 0 W/m2
Juneau County Weather
Compliments of Weather Underground - 4 mb